createdAt,value
2022-12-11T00:01:09.611Z,91.91
2022-12-11T00:04:12.155Z,91.22
2022-12-11T00:07:14.723Z,91.75
2022-12-11T00:10:17.283Z,92.15
2022-12-11T00:13:21.126Z,92.38
2022-12-11T00:16:26.863Z,91.82
2022-12-11T00:19:29.914Z,92.42
2022-12-11T00:22:32.489Z,92.01
2022-12-11T00:25:34.946Z,91.88
2022-12-11T00:28:39.184Z,92.01
2022-12-11T00:31:42.261Z,92.02
2022-12-11T00:34:44.843Z,91.65
2022-12-11T00:37:47.367Z,91.32
2022-12-11T00:40:50.573Z,92.26
2022-12-11T00:43:54.457Z,90.98
2022-12-11T00:46:56.999Z,90.80
2022-12-11T00:49:59.598Z,91.17
2022-12-11T00:53:02.531Z,92.56
2022-12-11T00:56:10.592Z,91.63
2022-12-11T00:59:14.441Z,92.12
2022-12-11T01:02:16.960Z,92.46
2022-12-11T01:05:19.639Z,91.96
2022-12-11T01:08:22.295Z,91.39
2022-12-11T01:11:24.943Z,91.40
2022-12-11T01:14:29.910Z,91.04
2022-12-11T01:17:32.411Z,91.26
2022-12-11T01:20:35.032Z,91.43
2022-12-11T01:23:38.323Z,91.33
2022-12-11T01:26:40.873Z,90.73
2022-12-11T01:29:44.796Z,91.54
2022-12-11T01:32:47.594Z,91.84
2022-12-11T01:35:50.048Z,91.48
2022-12-11T01:38:54.418Z,91.34
2022-12-11T01:41:57.771Z,91.64
2022-12-11T01:45:30.395Z,91.42
2022-12-11T01:48:34.088Z,91.58
2022-12-11T01:51:42.527Z,92.32
2022-12-11T01:54:48.381Z,92.09
2022-12-11T01:57:52.809Z,91.83
2022-12-11T02:00:58.161Z,92.02
2022-12-11T02:04:01.699Z,91.59
2022-12-11T02:07:04.461Z,91.09
2022-12-11T02:10:08.700Z,91.77
2022-12-11T02:13:17.145Z,91.55
2022-12-11T02:16:26.365Z,91.89
2022-12-11T02:19:44.367Z,92.47
2022-12-11T02:23:19.617Z,92.53
2022-12-11T02:26:35.118Z,92.21
2022-12-11T02:29:46.072Z,91.50
2022-12-11T02:32:54.762Z,91.44
2022-12-11T02:35:57.844Z,91.55
2022-12-11T02:39:03.500Z,91.68
2022-12-11T02:42:08.532Z,91.58
2022-12-11T02:45:13.951Z,91.56
2022-12-11T02:48:17.906Z,91.43
2022-12-11T02:51:25.766Z,91.16
2022-12-11T02:54:31.795Z,91.79
2022-12-11T02:57:39.712Z,91.33
2022-12-11T03:00:44.481Z,91.39
2022-12-11T03:03:47.611Z,91.58
2022-12-11T03:06:53.842Z,91.71
2022-12-11T03:09:56.547Z,91.92
2022-12-11T03:13:01.120Z,90.83
2022-12-11T03:16:14.536Z,91.66
2022-12-11T03:19:27.859Z,90.61
2022-12-11T03:22:37.344Z,90.53
2022-12-11T03:25:46.872Z,90.66
2022-12-11T03:28:56.301Z,90.33
2022-12-11T03:32:06.454Z,90.23
2022-12-11T03:35:13.964Z,90.49
2022-12-11T03:38:23.104Z,91.34
2022-12-11T03:41:28.166Z,91.37
2022-12-11T03:44:33.508Z,90.96
2022-12-11T03:47:39.976Z,91.00
2022-12-11T03:50:43.604Z,91.01
2022-12-11T03:53:47.467Z,90.90
2022-12-11T03:56:53.608Z,90.76
2022-12-11T03:59:56.512Z,90.39
2022-12-11T04:03:16.107Z,90.84
2022-12-11T04:06:18.757Z,90.38
2022-12-11T04:09:21.267Z,90.22
2022-12-11T04:12:24.051Z,89.98
2022-12-11T04:15:26.553Z,89.70
2022-12-11T04:19:05.604Z,89.52
2022-12-11T04:22:28.395Z,89.26
2022-12-11T04:25:30.915Z,89.24
2022-12-11T04:28:33.436Z,87.73
2022-12-11T04:31:36.009Z,88.55
2022-12-11T04:34:40.751Z,89.06
2022-12-11T04:37:43.375Z,88.63
2022-12-11T04:40:45.911Z,88.68
2022-12-11T04:43:48.455Z,89.17
2022-12-11T04:46:51.056Z,89.98
2022-12-11T04:49:55.073Z,89.80
2022-12-11T04:52:57.976Z,90.19
2022-12-11T04:56:00.498Z,91.08
2022-12-11T04:59:03.011Z,90.20
2022-12-11T05:02:05.654Z,89.42
2022-12-11T05:05:11.327Z,90.46
2022-12-11T05:08:13.970Z,89.38
2022-12-11T05:11:16.806Z,90.34
2022-12-11T05:14:19.438Z,89.92
2022-12-11T05:17:22.299Z,90.60
2022-12-11T05:20:26.224Z,90.15
2022-12-11T05:23:29.096Z,90.17
2022-12-11T05:26:31.631Z,89.27
2022-12-11T05:29:34.273Z,89.03
2022-12-11T05:32:36.976Z,89.47
2022-12-11T05:35:50.517Z,89.79
2022-12-11T05:38:53.621Z,89.41
2022-12-11T05:41:56.596Z,89.32
2022-12-11T05:44:59.100Z,89.09
2022-12-11T05:48:01.782Z,90.14
2022-12-11T05:51:08.348Z,89.85
2022-12-11T05:54:11.031Z,88.78
2022-12-11T05:57:13.562Z,89.06
2022-12-11T06:00:16.381Z,89.12
2022-12-11T06:03:18.934Z,89.40
2022-12-11T06:06:23.995Z,88.81
2022-12-11T06:09:26.467Z,89.43
2022-12-11T06:12:29.885Z,89.48
2022-12-11T06:15:32.849Z,89.77
2022-12-11T06:18:37.236Z,88.99
2022-12-11T06:21:41.276Z,89.19
2022-12-11T06:24:43.886Z,89.98
2022-12-11T06:27:46.412Z,89.81
2022-12-11T06:30:48.978Z,89.06
2022-12-11T06:33:51.489Z,89.13
2022-12-11T06:36:55.332Z,90.22
2022-12-11T06:39:57.911Z,89.79
2022-12-11T06:43:00.419Z,89.81
2022-12-11T06:46:04.644Z,88.96
2022-12-11T06:49:07.252Z,89.64
2022-12-11T06:52:15.088Z,90.39
2022-12-11T06:55:21.147Z,89.40
2022-12-11T06:58:23.752Z,89.14
2022-12-11T07:01:28.185Z,90.06
2022-12-11T07:04:30.993Z,89.18
2022-12-11T07:07:35.267Z,89.38
2022-12-11T07:10:39.569Z,88.81
2022-12-11T07:13:42.769Z,89.57
2022-12-11T07:16:45.303Z,89.02
2022-12-11T07:19:47.917Z,89.22
2022-12-11T07:22:51.809Z,89.14
2022-12-11T07:25:55.690Z,89.28
2022-12-11T07:29:00.540Z,89.71
2022-12-11T07:32:03.193Z,88.58
2022-12-11T07:35:06.764Z,87.86
2022-12-11T07:38:10.754Z,88.09
2022-12-11T07:41:15.367Z,89.16
2022-12-11T07:44:18.047Z,88.07
2022-12-11T07:47:20.707Z,88.31
2022-12-11T07:50:23.462Z,87.11
2022-12-11T07:53:27.327Z,87.49
2022-12-11T07:56:30.571Z,88.07
2022-12-11T07:59:33.889Z,87.54
2022-12-11T08:02:37.687Z,86.63
2022-12-11T08:05:40.386Z,86.07
2022-12-11T08:08:44.307Z,86.30
2022-12-11T08:11:48.554Z,87.97
2022-12-11T08:14:51.142Z,87.19
2022-12-11T08:17:53.745Z,87.14
2022-12-11T08:20:56.363Z,86.94
2022-12-11T08:24:00.380Z,86.25
2022-12-11T08:27:03.165Z,86.58
2022-12-11T08:30:07.063Z,86.33
2022-12-11T08:33:09.580Z,85.94
2022-12-11T08:36:14.573Z,86.00
2022-12-11T08:39:18.525Z,86.83
2022-12-11T08:42:21.368Z,86.39
2022-12-11T08:45:24.008Z,85.39
2022-12-11T08:48:26.494Z,85.96
2022-12-11T08:51:30.281Z,85.53
2022-12-11T08:54:37.069Z,84.35
2022-12-11T08:57:39.853Z,85.48
2022-12-11T09:00:42.502Z,84.60
2022-12-11T09:03:45.148Z,84.51
2022-12-11T09:06:47.694Z,84.70
2022-12-11T09:09:51.620Z,84.92
2022-12-11T09:12:54.156Z,85.85
2022-12-11T09:15:56.941Z,85.33
2022-12-11T09:19:00.248Z,85.13
2022-12-11T09:22:02.856Z,85.70
2022-12-11T09:25:07.964Z,84.43
2022-12-11T09:28:10.682Z,84.91
2022-12-11T09:31:15.844Z,85.45
2022-12-11T09:34:18.754Z,82.82
2022-12-11T09:37:21.417Z,85.10
2022-12-11T09:40:25.892Z,83.24
2022-12-11T09:43:38.089Z,84.37
2022-12-11T09:46:41.748Z,84.00
2022-12-11T09:49:46.362Z,85.17
2022-12-11T09:53:00.288Z,84.93
2022-12-11T09:56:16.511Z,83.85
2022-12-11T09:59:28.884Z,84.94
2022-12-11T10:02:40.871Z,86.16
2022-12-11T10:05:51.240Z,84.85
2022-12-11T10:09:07.018Z,85.05
2022-12-11T10:12:23.716Z,84.99
2022-12-11T10:15:35.414Z,85.88
2022-12-11T10:18:38.762Z,86.24
2022-12-11T10:21:42.464Z,85.29
2022-12-11T10:25:10.806Z,84.08
2022-12-11T10:28:16.949Z,84.59
2022-12-11T10:31:23.985Z,84.71
2022-12-11T10:34:34.604Z,83.19
2022-12-11T10:37:37.113Z,83.36
2022-12-11T10:40:43.519Z,84.41
2022-12-11T10:43:49.668Z,83.72
2022-12-11T10:47:03.595Z,84.71
2022-12-11T10:50:06.642Z,84.91
2022-12-11T10:53:21.185Z,84.76
2022-12-11T10:56:28.606Z,84.74
2022-12-11T10:59:36.271Z,85.38
2022-12-11T11:02:42.812Z,85.54
2022-12-11T11:05:49.353Z,86.76
2022-12-11T11:08:54.188Z,84.80
2022-12-11T11:11:56.857Z,84.05
2022-12-11T11:15:02.828Z,85.29
2022-12-11T11:18:12.878Z,86.24
2022-12-11T11:21:17.736Z,85.35
2022-12-11T11:24:33.392Z,85.22
2022-12-11T11:27:43.569Z,85.34
2022-12-11T11:30:58.410Z,83.13
2022-12-11T11:34:05.646Z,84.68
2022-12-11T11:37:24.186Z,84.96
2022-12-11T11:40:30.528Z,84.99
2022-12-11T11:43:38.809Z,83.41
2022-12-11T11:46:47.801Z,82.65
2022-12-11T11:49:58.265Z,83.66
2022-12-11T11:53:08.532Z,84.08
2022-12-11T11:56:21.298Z,83.03
2022-12-11T11:59:31.248Z,84.54
2022-12-11T12:02:35.681Z,82.94
2022-12-11T12:05:46.709Z,82.68
2022-12-11T12:08:58.000Z,82.82
2022-12-11T12:12:10.720Z,82.70
2022-12-11T12:15:26.682Z,83.37
2022-12-11T12:18:39.642Z,83.30
2022-12-11T12:21:48.107Z,83.58
2022-12-11T12:25:03.345Z,84.02
2022-12-11T12:28:19.027Z,84.42
2022-12-11T12:31:37.778Z,83.99
2022-12-11T12:34:56.149Z,84.07
2022-12-11T12:38:09.431Z,83.14
2022-12-11T12:41:20.094Z,84.38
2022-12-11T12:44:25.077Z,83.18
2022-12-11T12:47:30.700Z,84.07
2022-12-11T12:50:43.016Z,85.74
2022-12-11T12:54:35.810Z,83.94
2022-12-11T12:57:40.099Z,84.86
2022-12-11T13:00:44.176Z,84.02
2022-12-11T13:03:54.354Z,84.63
2022-12-11T13:06:58.382Z,82.65
2022-12-11T13:10:07.953Z,83.66
2022-12-11T13:13:32.033Z,84.02
2022-12-11T13:16:37.208Z,84.24
2022-12-11T13:19:42.777Z,85.00
2022-12-11T13:23:18.435Z,85.47
2022-12-11T13:26:30.580Z,86.39
2022-12-11T13:29:36.113Z,87.14
2022-12-11T13:32:39.638Z,88.03
2022-12-11T13:35:43.000Z,88.02
2022-12-11T13:38:49.053Z,87.15
2022-12-11T13:41:57.259Z,87.67
2022-12-11T13:45:01.619Z,88.78
2022-12-11T13:48:16.636Z,87.71
2022-12-11T13:51:21.883Z,87.98
2022-12-11T13:54:25.677Z,87.92
2022-12-11T13:57:29.810Z,87.19
2022-12-11T14:00:33.040Z,87.76
2022-12-11T14:03:35.913Z,88.85
2022-12-11T14:06:39.849Z,87.88
2022-12-11T14:09:45.704Z,87.31
2022-12-11T14:12:53.660Z,88.40
2022-12-11T14:15:56.300Z,88.13
2022-12-11T14:19:04.179Z,88.04
2022-12-11T14:22:08.003Z,87.68
2022-12-11T14:25:24.840Z,87.29
2022-12-11T14:28:35.690Z,86.96
2022-12-11T14:31:42.311Z,86.73
2022-12-11T14:34:47.816Z,87.38
2022-12-11T14:37:52.408Z,89.19
2022-12-11T14:40:59.308Z,88.14
2022-12-11T14:44:07.137Z,87.53
2022-12-11T14:47:15.791Z,87.63
2022-12-11T14:50:23.135Z,87.08
2022-12-11T14:53:29.272Z,87.53
2022-12-11T14:56:32.816Z,86.56
2022-12-11T14:59:44.153Z,86.54
2022-12-11T15:02:57.476Z,87.86
2022-12-11T15:06:00.549Z,89.12
2022-12-11T15:09:16.477Z,89.77
2022-12-11T15:12:20.368Z,89.12
2022-12-11T15:15:24.857Z,87.97
2022-12-11T15:18:31.102Z,89.26
2022-12-11T15:21:36.282Z,89.14
2022-12-11T15:24:42.033Z,88.81
2022-12-11T15:27:44.759Z,88.19
2022-12-11T15:30:57.082Z,89.36
2022-12-11T15:34:02.455Z,88.86
2022-12-11T15:37:17.723Z,87.25
2022-12-11T15:40:21.845Z,87.67
2022-12-11T15:43:25.531Z,87.52
2022-12-11T15:46:30.700Z,89.11
2022-12-11T15:49:33.466Z,90.04
2022-12-11T15:52:36.324Z,89.31
2022-12-11T15:55:39.529Z,89.39
2022-12-11T15:58:44.588Z,89.15
2022-12-11T16:01:49.252Z,89.50
2022-12-11T16:04:52.094Z,90.13
2022-12-11T16:07:56.549Z,89.25
2022-12-11T16:10:59.164Z,90.05
2022-12-11T16:14:05.940Z,90.16
2022-12-11T16:17:13.200Z,90.01
2022-12-11T16:20:15.968Z,90.61
2022-12-11T16:23:19.132Z,90.32
2022-12-11T16:26:21.719Z,90.00
2022-12-11T16:29:24.355Z,90.13
2022-12-11T16:32:28.226Z,89.44
2022-12-11T16:35:31.250Z,89.57
2022-12-11T16:38:35.766Z,89.51
2022-12-11T16:41:38.461Z,89.27
2022-12-11T16:44:44.371Z,88.57
2022-12-11T16:47:48.866Z,89.45
2022-12-11T16:50:53.611Z,87.85
2022-12-11T16:53:56.311Z,88.40
2022-12-11T16:56:59.090Z,88.13
2022-12-11T17:00:01.956Z,88.27
2022-12-11T17:03:06.519Z,88.06
2022-12-11T17:06:10.517Z,87.95
2022-12-11T17:09:13.415Z,87.24
2022-12-11T17:12:15.995Z,88.15
2022-12-11T17:15:19.025Z,88.25
2022-12-11T17:18:23.101Z,87.63
2022-12-11T17:21:25.728Z,87.73
2022-12-11T17:24:29.563Z,87.77
2022-12-11T17:27:33.612Z,87.65
2022-12-11T17:30:40.746Z,88.39
2022-12-11T17:33:45.692Z,88.67
2022-12-11T17:36:48.567Z,89.13
2022-12-11T17:39:51.228Z,87.22
2022-12-11T17:42:53.904Z,87.87
2022-12-11T17:45:56.711Z,88.00
2022-12-11T17:49:02.410Z,88.93
2022-12-11T17:52:05.367Z,88.56
2022-12-11T17:55:09.062Z,89.45
2022-12-11T17:58:12.237Z,88.90
2022-12-11T18:01:14.967Z,89.44
2022-12-11T18:04:19.072Z,88.81
2022-12-11T18:07:22.617Z,88.83
2022-12-11T18:10:26.887Z,89.51
2022-12-11T18:13:29.736Z,89.73
2022-12-11T18:16:35.085Z,88.69
2022-12-11T18:19:45.698Z,88.17
2022-12-11T18:22:49.124Z,88.73
2022-12-11T18:25:52.275Z,88.27
2022-12-11T18:28:55.245Z,88.65
2022-12-11T18:31:58.108Z,88.94
2022-12-11T18:35:03.109Z,88.75
2022-12-11T18:38:06.088Z,89.04
2022-12-11T18:41:11.702Z,89.46
2022-12-11T18:44:21.702Z,89.15
2022-12-11T18:47:24.676Z,88.82
2022-12-11T18:50:28.891Z,89.05
2022-12-11T18:53:34.720Z,87.90
2022-12-11T18:56:38.779Z,89.54
2022-12-11T18:59:41.505Z,90.08
2022-12-11T19:02:44.212Z,89.55
2022-12-11T19:05:48.455Z,89.94
2022-12-11T19:08:51.621Z,89.61
2022-12-11T19:11:54.889Z,89.15
2022-12-11T19:14:58.806Z,88.65
2022-12-11T19:18:01.641Z,88.80
2022-12-11T19:21:12.519Z,88.53
2022-12-11T19:24:19.784Z,88.45
2022-12-11T19:27:22.631Z,88.36
2022-12-11T19:30:26.120Z,88.32
2022-12-11T19:33:29.312Z,89.00
2022-12-11T19:36:34.844Z,89.29
2022-12-11T19:39:38.637Z,87.92
2022-12-11T19:42:41.880Z,88.00
2022-12-11T19:45:45.882Z,88.25
2022-12-11T19:48:49.898Z,87.92
2022-12-11T19:51:54.051Z,88.04
2022-12-11T19:55:01.298Z,88.94
2022-12-11T19:58:04.025Z,90.18
2022-12-11T20:01:07.497Z,89.14
2022-12-11T20:04:14.839Z,87.18
2022-12-11T20:07:19.188Z,87.44
2022-12-11T20:10:22.048Z,87.58
2022-12-11T20:13:24.739Z,88.51
2022-12-11T20:16:46.331Z,87.71
2022-12-11T20:19:50.456Z,87.21
2022-12-11T20:22:57.341Z,88.23
2022-12-11T20:26:06.444Z,88.69
2022-12-11T20:29:09.314Z,88.06
2022-12-11T20:32:12.448Z,88.26
2022-12-11T20:35:15.157Z,88.59
2022-12-11T20:38:20.984Z,88.51
2022-12-11T20:41:25.235Z,88.30
2022-12-11T20:44:27.991Z,89.36
2022-12-11T20:47:30.748Z,89.47
2022-12-11T20:50:33.312Z,89.97
2022-12-11T20:53:37.526Z,89.35
2022-12-11T20:56:40.259Z,88.88
2022-12-11T20:59:44.439Z,87.19
2022-12-11T21:02:49.600Z,88.55
2022-12-11T21:05:53.129Z,88.14
2022-12-11T21:08:57.522Z,88.10
2022-12-11T21:12:01.606Z,89.27
2022-12-11T21:15:05.154Z,89.10
2022-12-11T21:18:08.239Z,89.34
2022-12-11T21:21:10.944Z,89.29
2022-12-11T21:24:17.564Z,88.84
2022-12-11T21:27:22.982Z,88.30
2022-12-11T21:30:27.387Z,87.89
2022-12-11T21:33:30.067Z,88.07
2022-12-11T21:36:33.021Z,88.60
2022-12-11T21:39:39.437Z,88.92
2022-12-11T21:42:42.134Z,88.25
2022-12-11T21:46:01.752Z,87.06
2022-12-11T21:49:04.884Z,88.01
2022-12-11T21:52:25.736Z,87.27
2022-12-11T21:55:29.575Z,88.77
2022-12-11T21:58:32.075Z,88.67
2022-12-11T22:01:37.528Z,87.92
2022-12-11T22:04:40.241Z,87.50
2022-12-11T22:07:42.791Z,87.82
2022-12-11T22:10:46.939Z,88.99
2022-12-11T22:13:49.539Z,88.24
2022-12-11T22:16:52.116Z,88.03
2022-12-11T22:19:54.691Z,89.34
2022-12-11T22:22:57.477Z,88.41
2022-12-11T22:26:01.371Z,88.21
2022-12-11T22:29:03.912Z,87.04
2022-12-11T22:32:06.612Z,87.85
2022-12-11T22:35:10.547Z,88.57
2022-12-11T22:38:13.413Z,88.67
2022-12-11T22:41:24.463Z,86.58
2022-12-11T22:44:27.186Z,87.08
2022-12-11T22:47:29.739Z,86.25
2022-12-11T22:50:36.591Z,88.00
2022-12-11T22:53:39.151Z,88.35
2022-12-11T22:56:43.247Z,87.61
2022-12-11T22:59:46.077Z,87.90
2022-12-11T23:02:48.976Z,87.86
2022-12-11T23:05:51.596Z,87.62
2022-12-11T23:08:57.437Z,89.18
2022-12-11T23:12:01.631Z,88.13
2022-12-11T23:15:04.987Z,88.58
2022-12-11T23:18:07.610Z,88.24
2022-12-11T23:21:11.128Z,88.71
2022-12-11T23:24:13.660Z,88.31
2022-12-11T23:27:17.621Z,88.95
2022-12-11T23:30:21.575Z,89.97
2022-12-11T23:33:24.210Z,89.74
2022-12-11T23:36:28.042Z,89.06
2022-12-11T23:39:30.509Z,89.10
2022-12-11T23:42:34.984Z,89.21
2022-12-11T23:45:37.896Z,88.92
2022-12-11T23:48:40.952Z,89.10
2022-12-11T23:51:43.659Z,89.12
2022-12-11T23:54:46.458Z,89.39
2022-12-11T23:57:50.440Z,89.64
